createdAt,value
2023-02-02T06:01:49.015Z,8.73
2023-02-02T06:04:16.293Z,16.73
2023-02-02T06:06:44.241Z,15.85
2023-02-02T06:09:11.222Z,10.70
2023-02-02T06:11:39.703Z,8.85
2023-02-02T06:14:07.276Z,12.23
2023-02-02T06:16:34.682Z,7.45
2023-02-02T06:19:01.468Z,9.93
2023-02-02T06:21:31.377Z,13.23
2023-02-02T06:23:58.416Z,10.13
2023-02-02T06:26:26.671Z,5.70
2023-02-02T06:28:54.522Z,8.80
2023-02-02T06:31:22.343Z,13.63
2023-02-02T06:33:54.345Z,9.43
2023-02-02T06:36:22.531Z,8.63
2023-02-02T06:38:50.910Z,5.63
2023-02-02T06:41:19.122Z,6.60
2023-02-02T06:43:46.268Z,5.25
2023-02-02T06:46:13.677Z,8.23
2023-02-02T06:48:40.518Z,8.10
2023-02-02T06:51:08.357Z,10.65
2023-02-02T06:53:35.632Z,6.65
2023-02-02T06:56:06.303Z,5.80
2023-02-02T06:58:34.001Z,6.43
2023-02-02T07:01:11.724Z,5.55
2023-02-02T07:03:38.808Z,10.27
2023-02-02T07:06:24.066Z,5.78
2023-02-02T07:09:00.964Z,6.28
2023-02-02T07:11:30.133Z,3.65
2023-02-02T07:13:57.752Z,4.78
2023-02-02T07:16:29.786Z,6.05
2023-02-02T07:18:57.112Z,9.43
2023-02-02T07:21:30.803Z,7.25
2023-02-02T07:23:57.693Z,10.25
2023-02-02T07:26:25.015Z,6.07
2023-02-02T07:28:52.029Z,9.70
2023-02-02T07:31:22.258Z,7.57
2023-02-02T07:33:50.123Z,2.85
2023-02-02T07:36:19.872Z,5.88
2023-02-02T07:38:47.985Z,13.27
2023-02-02T07:41:16.294Z,5.35
2023-02-02T07:43:46.098Z,7.82
2023-02-02T07:46:14.610Z,4.93
2023-02-02T07:48:41.368Z,8.23
2023-02-02T07:51:12.650Z,6.90
2023-02-02T07:53:39.355Z,6.15
2023-02-02T07:56:11.987Z,3.30
2023-02-02T07:58:38.970Z,2.95
2023-02-02T08:01:08.422Z,5.05
2023-02-02T08:03:36.092Z,7.20
2023-02-02T08:06:14.628Z,6.85
2023-02-02T08:08:41.186Z,4.80
2023-02-02T08:11:10.377Z,9.65
2023-02-02T08:13:36.953Z,3.35
2023-02-02T08:16:04.634Z,5.80
2023-02-02T08:18:31.383Z,6.30
2023-02-02T08:20:59.711Z,5.32
2023-02-02T08:23:26.781Z,5.50
2023-02-02T08:25:54.506Z,6.45
2023-02-02T08:28:21.135Z,4.47
2023-02-02T08:30:48.451Z,3.42
2023-02-02T08:33:15.465Z,3.25
2023-02-02T08:35:43.736Z,4.97
2023-02-02T08:38:10.422Z,5.13
2023-02-02T08:40:37.581Z,7.18
2023-02-02T08:43:04.685Z,3.75
2023-02-02T08:46:01.634Z,6.13
2023-02-02T08:48:21.239Z,3.67
2023-02-02T08:50:56.002Z,6.57
2023-02-02T08:53:23.519Z,9.38
2023-02-02T08:56:08.042Z,6.32
2023-02-02T08:58:34.978Z,6.05
2023-02-02T09:01:12.663Z,3.97
2023-02-02T09:03:40.743Z,7.47
2023-02-02T09:06:14.044Z,7.47
2023-02-02T09:08:41.525Z,4.47
2023-02-02T09:11:17.209Z,3.75
2023-02-02T09:13:46.511Z,5.07
2023-02-02T09:16:15.489Z,7.93
2023-02-02T09:18:43.842Z,5.38
2023-02-02T09:21:12.646Z,8.05
2023-02-02T09:23:41.666Z,7.82
2023-02-02T09:26:19.723Z,6.55
2023-02-02T09:28:55.160Z,4.13
2023-02-02T09:31:22.846Z,7.20
2023-02-02T09:33:50.956Z,10.70
2023-02-02T09:36:26.930Z,8.98
2023-02-02T09:38:54.364Z,8.07
2023-02-02T09:41:27.013Z,5.45
2023-02-02T09:44:12.959Z,9.23
2023-02-02T09:47:23.122Z,6.65
2023-02-02T09:50:13.547Z,7.10
2023-02-02T09:52:44.807Z,8.00
2023-02-02T09:55:30.271Z,6.90
2023-02-02T09:58:24.376Z,6.70
2023-02-02T10:01:08.358Z,9.52
2023-02-02T10:03:58.513Z,7.43
2023-02-02T10:06:43.720Z,5.63
2023-02-02T10:09:10.897Z,5.88
2023-02-02T10:11:44.595Z,9.48
2023-02-02T10:14:28.113Z,5.22
2023-02-02T10:16:57.263Z,5.07
2023-02-02T10:19:29.648Z,15.77
2023-02-02T10:22:16.347Z,6.00
2023-02-02T10:24:44.596Z,4.88
2023-02-02T10:27:17.233Z,7.72
2023-02-02T10:30:02.285Z,8.85
2023-02-02T10:32:39.046Z,8.35
2023-02-02T10:35:32.600Z,6.68
2023-02-02T10:38:13.099Z,5.63
2023-02-02T10:40:59.018Z,5.50
2023-02-02T10:44:06.541Z,6.68
2023-02-02T10:46:42.309Z,7.13
2023-02-02T10:49:24.294Z,5.50
2023-02-02T10:52:29.487Z,11.95
2023-02-02T10:55:16.309Z,9.23
2023-02-02T10:57:57.431Z,5.15
2023-02-02T11:00:50.911Z,10.93
2023-02-02T11:03:20.165Z,6.03
2023-02-02T11:06:06.460Z,7.88
2023-02-02T11:08:40.376Z,5.88
2023-02-02T11:11:33.693Z,12.20
2023-02-02T11:14:09.932Z,9.18
2023-02-02T11:16:43.764Z,11.40
2023-02-02T11:19:17.524Z,5.18
2023-02-02T11:21:53.541Z,5.72
2023-02-02T11:24:28.939Z,8.10
2023-02-02T11:26:57.338Z,5.88
2023-02-02T11:29:59.450Z,7.27
2023-02-02T11:32:28.933Z,5.03
2023-02-02T11:35:02.361Z,12.23
2023-02-02T11:37:29.714Z,6.70
2023-02-02T11:40:35.394Z,5.20
2023-02-02T11:43:06.363Z,9.23
2023-02-02T11:45:42.220Z,6.03
2023-02-02T11:48:30.589Z,7.15
2023-02-02T11:51:01.022Z,6.22
2023-02-02T11:53:49.021Z,10.73
2023-02-02T11:56:22.809Z,12.02
2023-02-02T11:58:59.142Z,11.73
2023-02-02T12:01:29.814Z,7.30
2023-02-02T12:04:02.026Z,8.90
2023-02-02T12:06:38.689Z,11.23
2023-02-02T12:09:21.914Z,5.82
2023-02-02T12:12:07.799Z,8.85
2023-02-02T12:14:55.575Z,10.48
2023-02-02T12:17:38.620Z,6.60
2023-02-02T12:20:37.065Z,11.00
2023-02-02T12:23:41.077Z,9.05
2023-02-02T12:26:31.732Z,10.57
2023-02-02T12:29:29.830Z,9.05
2023-02-02T12:32:22.724Z,6.75
2023-02-02T12:35:08.246Z,9.48
2023-02-02T12:37:50.440Z,10.93
2023-02-02T12:40:43.421Z,8.45
2023-02-02T12:43:27.545Z,12.18
2023-02-02T12:46:07.086Z,11.07
2023-02-02T12:48:55.573Z,8.43
2023-02-02T12:51:22.723Z,10.63
2023-02-02T12:54:35.162Z,9.60
2023-02-02T12:57:14.394Z,10.43
2023-02-02T13:00:13.110Z,8.18
2023-02-02T13:03:17.934Z,9.95
2023-02-02T13:06:09.906Z,12.73
2023-02-02T13:08:47.975Z,8.82
2023-02-02T13:11:32.984Z,10.48
2023-02-02T13:14:08.361Z,12.27
2023-02-02T13:16:38.526Z,10.27
2023-02-02T13:19:08.450Z,15.10
2023-02-02T13:21:38.418Z,14.50
2023-02-02T13:26:39.142Z,8.38
2023-02-02T13:29:12.180Z,8.82
2023-02-02T13:31:44.519Z,9.98
2023-02-02T13:34:18.047Z,12.43
2023-02-02T13:36:51.431Z,5.35
2023-02-02T13:39:26.442Z,10.25
2023-02-02T13:41:55.304Z,11.98
2023-02-02T13:44:29.677Z,5.22
2023-02-02T13:47:03.731Z,10.10
2023-02-02T13:50:00.932Z,10.40
2023-02-02T13:52:43.082Z,6.93
2023-02-02T13:55:24.735Z,7.10
2023-02-02T13:58:30.505Z,8.80
2023-02-02T14:01:04.620Z,14.18
2023-02-02T14:03:55.955Z,12.90
2023-02-02T14:06:25.658Z,11.73
2023-02-02T14:11:33.069Z,33.13
2023-02-02T14:14:34.658Z,34.72
2023-02-02T14:17:20.001Z,13.55
2023-02-02T14:19:49.526Z,11.70
2023-02-02T14:22:18.496Z,10.75
2023-02-02T14:24:50.913Z,11.13
2023-02-02T14:27:18.657Z,9.90
2023-02-02T14:29:46.762Z,9.88
2023-02-02T14:32:29.650Z,14.93
2023-02-02T14:35:09.992Z,12.88
2023-02-02T14:37:49.451Z,13.77
2023-02-02T14:40:15.938Z,14.43
2023-02-02T14:43:43.096Z,36.70
2023-02-02T14:46:12.894Z,16.80
2023-02-02T14:48:42.723Z,13.50
2023-02-02T14:51:16.478Z,11.65
2023-02-02T14:54:00.016Z,12.45
2023-02-02T14:56:51.315Z,11.13
2023-02-02T14:59:23.428Z,12.45
2023-02-02T15:02:00.950Z,9.10
2023-02-02T15:04:29.339Z,9.88
2023-02-02T15:06:56.689Z,12.50
2023-02-02T15:09:23.513Z,9.98
2023-02-02T15:12:01.755Z,11.80
2023-02-02T15:14:53.107Z,8.02
2023-02-02T15:17:29.422Z,10.45
2023-02-02T15:20:14.957Z,8.20
2023-02-02T15:23:11.532Z,12.45
2023-02-02T15:26:07.380Z,10.18
2023-02-02T15:28:41.951Z,8.98
2023-02-02T15:34:21.284Z,9.98
2023-02-02T15:36:51.972Z,10.38
2023-02-02T15:39:27.954Z,10.18
2023-02-02T15:42:17.179Z,8.88
2023-02-02T15:44:46.040Z,9.75
2023-02-02T15:47:17.265Z,13.18
2023-02-02T15:49:47.837Z,11.57
2023-02-02T16:00:30.908Z,8.82
2023-02-02T16:03:07.033Z,8.30
2023-02-02T16:05:36.355Z,15.15
2023-02-02T16:10:34.642Z,18.08
2023-02-02T16:13:02.631Z,19.30
2023-02-02T16:15:31.740Z,20.08
2023-02-02T16:18:05.806Z,22.95
2023-02-02T16:20:35.579Z,23.05
2023-02-02T16:23:06.580Z,22.58
2023-02-02T16:25:50.133Z,20.95
2023-02-02T16:28:20.220Z,19.98
2023-02-02T16:30:48.005Z,19.55
2023-02-02T16:33:44.021Z,15.02
2023-02-02T16:36:28.469Z,14.60
2023-02-02T16:38:58.123Z,13.98
2023-02-02T16:41:32.695Z,13.80
2023-02-02T16:44:45.344Z,14.38
2023-02-02T16:47:36.630Z,11.15
2023-02-02T16:50:09.406Z,11.50
2023-02-02T16:52:55.919Z,9.55
2023-02-02T16:55:23.729Z,10.73
2023-02-02T16:57:52.642Z,10.30
2023-02-02T17:00:22.635Z,11.55
2023-02-02T17:02:56.968Z,13.85
2023-02-02T17:05:33.655Z,12.18
2023-02-02T17:08:08.218Z,9.82
2023-02-02T17:10:36.235Z,11.95
2023-02-02T17:13:24.501Z,10.65
2023-02-02T17:15:55.979Z,8.38
2023-02-02T17:18:23.783Z,14.05
2023-02-02T17:20:57.528Z,14.68
2023-02-02T17:23:28.257Z,14.95
2023-02-02T17:26:16.939Z,14.93
2023-02-02T17:28:44.644Z,16.95
2023-02-02T17:31:17.278Z,13.88
2023-02-02T17:33:44.563Z,15.18
2023-02-02T17:36:13.168Z,17.27
2023-02-02T17:38:40.753Z,16.25
2023-02-02T17:41:07.441Z,17.88
2023-02-02T17:43:34.740Z,17.88
2023-02-02T17:46:03.391Z,14.43
2023-02-02T17:48:30.815Z,17.52
2023-02-02T17:50:57.473Z,16.63
2023-02-02T17:53:24.671Z,18.15
2023-02-02T17:55:52.009Z,19.85
2023-02-02T17:58:19.798Z,17.90
2023-02-02T18:00:51.744Z,18.25
2023-02-02T18:03:28.685Z,20.38
2023-02-02T18:05:57.618Z,25.15
2023-02-02T18:08:25.135Z,23.58
2023-02-02T18:10:51.724Z,21.15
2023-02-02T18:13:21.029Z,18.15
2023-02-02T18:15:50.246Z,21.65
2023-02-02T18:18:17.136Z,21.10
2023-02-02T18:20:46.950Z,27.13
2023-02-02T18:23:14.381Z,21.08
2023-02-02T18:25:41.904Z,19.45
2023-02-02T18:28:09.625Z,21.17
2023-02-02T18:30:41.199Z,20.05
2023-02-02T18:33:09.285Z,22.35
2023-02-02T18:35:43.783Z,28.15
2023-02-02T18:38:10.838Z,43.17
2023-02-02T18:40:38.701Z,26.35
2023-02-02T18:43:05.541Z,25.40
2023-02-02T18:45:33.281Z,22.40
2023-02-02T18:48:02.289Z,24.02
2023-02-02T18:50:29.784Z,19.98
2023-02-02T18:52:56.696Z,18.98
2023-02-02T18:55:25.182Z,18.05
2023-02-02T18:57:52.600Z,20.10
2023-02-02T19:00:21.631Z,20.33
2023-02-02T19:02:48.160Z,20.13
2023-02-02T19:05:33.484Z,23.30
2023-02-02T19:08:00.303Z,23.52
2023-02-02T19:10:28.320Z,26.00
2023-02-02T19:13:05.865Z,21.10
2023-02-02T19:15:39.757Z,21.02
2023-02-02T19:18:13.511Z,18.42
2023-02-02T19:20:41.405Z,17.88
2023-02-02T19:23:14.525Z,19.95
2023-02-02T19:25:45.645Z,19.63
2023-02-02T19:28:18.929Z,21.63
2023-02-02T19:30:46.034Z,21.38
2023-02-02T19:33:15.561Z,21.85
2023-02-02T19:35:46.570Z,23.17
2023-02-02T19:38:14.819Z,23.90
2023-02-02T19:40:43.074Z,21.85
2023-02-02T19:43:12.431Z,30.83
2023-02-02T19:45:40.007Z,28.85
2023-02-02T19:48:19.235Z,27.02
2023-02-02T19:50:46.795Z,23.08
2023-02-02T19:53:20.024Z,26.60
2023-02-02T19:55:47.728Z,26.80
2023-02-02T19:58:23.953Z,25.60
2023-02-02T20:00:53.366Z,22.75
2023-02-02T20:03:24.416Z,28.65
2023-02-02T20:05:52.658Z,22.15
2023-02-02T20:08:25.620Z,19.85
2023-02-02T20:10:58.581Z,19.70
2023-02-02T20:13:30.704Z,19.90
2023-02-02T20:16:03.843Z,22.85
2023-02-02T20:18:44.369Z,19.15
2023-02-02T20:21:25.941Z,18.55
2023-02-02T20:23:53.503Z,18.33
2023-02-02T20:26:33.172Z,21.23
2023-02-02T20:29:14.079Z,22.73
2023-02-02T20:31:41.058Z,23.13
2023-02-02T20:34:28.917Z,21.88
2023-02-02T20:37:07.629Z,24.55
2023-02-02T20:39:37.899Z,29.00
2023-02-02T20:42:04.807Z,29.15
2023-02-02T20:44:33.744Z,28.05
2023-02-02T20:47:01.329Z,27.45
2023-02-02T20:49:32.038Z,28.38
2023-02-02T20:52:00.409Z,27.10
2023-02-02T20:54:28.758Z,31.88
2023-02-02T20:56:56.091Z,33.83
2023-02-02T20:59:22.686Z,29.52
2023-02-02T21:01:52.999Z,30.98
2023-02-02T21:04:21.287Z,39.42
2023-02-02T21:06:49.324Z,38.90
2023-02-02T21:09:17.032Z,34.72
2023-02-02T21:11:44.937Z,43.17
2023-02-02T21:14:11.518Z,39.50
2023-02-02T21:16:38.787Z,41.10
2023-02-02T21:19:05.463Z,42.00
2023-02-02T21:21:32.572Z,42.45
2023-02-02T21:24:00.694Z,40.10
2023-02-02T21:26:30.962Z,43.17
2023-02-02T21:28:58.688Z,40.42
